createdAt,value
2023-03-27T00:02:16.479Z,8.36
2023-03-27T00:12:29.463Z,8.33
2023-03-27T00:22:42.443Z,8.30
2023-03-27T00:32:55.538Z,8.26
2023-03-27T00:43:36.494Z,8.24
2023-03-27T00:53:50.491Z,8.19
2023-03-27T01:04:04.504Z,8.21
2023-03-27T01:14:48.474Z,8.15
2023-03-27T01:25:10.555Z,8.13
2023-03-27T01:35:32.560Z,8.26
2023-03-27T01:46:05.529Z,8.27
2023-03-27T01:56:26.617Z,8.27
2023-03-27T02:06:45.540Z,8.27
2023-03-27T02:17:03.569Z,8.26
2023-03-27T02:27:23.546Z,8.27
2023-03-27T02:37:54.543Z,8.27
2023-03-27T02:48:14.578Z,8.31
2023-03-27T02:58:34.563Z,8.30
2023-03-27T03:08:49.618Z,8.34
2023-03-27T03:19:02.599Z,8.27
2023-03-27T03:29:15.604Z,8.36
2023-03-27T03:39:35.587Z,8.26
2023-03-27T03:49:48.610Z,8.40
2023-03-27T04:00:01.600Z,8.31
2023-03-27T04:10:16.619Z,8.28
2023-03-27T04:20:29.632Z,8.29
2023-03-27T04:30:43.628Z,8.18
2023-03-27T04:41:03.664Z,8.12
2023-03-27T04:51:17.643Z,8.05
2023-03-27T05:01:30.723Z,8.06
2023-03-27T05:11:44.679Z,7.89
2023-03-27T05:21:57.672Z,7.90
2023-03-27T05:32:10.684Z,8.01
2023-03-27T05:42:30.677Z,7.92
2023-03-27T05:52:43.705Z,7.97
2023-03-27T06:02:57.820Z,8.03
2023-03-27T06:13:16.759Z,8.21
2023-03-27T06:23:29.725Z,8.32
2023-03-27T06:33:42.728Z,8.55
2023-03-27T06:44:02.745Z,8.84
2023-03-27T06:54:15.724Z,8.76
2023-03-27T07:04:28.748Z,8.99
2023-03-27T07:14:41.708Z,9.10
2023-03-27T07:24:54.759Z,9.11
2023-03-27T07:35:07.769Z,9.14
2023-03-27T07:55:39.148Z,8.81
2023-03-27T08:05:45.663Z,8.65
2023-03-27T08:15:52.407Z,8.89
2023-03-27T08:26:01.928Z,8.58
2023-03-27T08:36:10.647Z,8.44
2023-03-27T08:46:27.162Z,8.44
2023-03-27T08:56:33.858Z,8.36
2023-03-27T09:07:02.133Z,7.78
2023-03-27T09:17:36.305Z,7.17
2023-03-27T09:27:42.963Z,6.53
2023-03-27T09:37:52.044Z,5.95
2023-03-27T09:48:04.074Z,5.82
2023-03-27T09:58:30.199Z,5.41
2023-03-27T10:08:49.003Z,5.10
2023-03-27T10:18:58.381Z,4.67
2023-03-27T10:29:24.082Z,4.24
2023-03-27T10:39:35.212Z,4.22
2023-03-27T10:49:59.946Z,4.23
2023-03-27T11:00:21.148Z,3.97
2023-03-27T11:10:46.211Z,4.38
2023-03-27T11:21:00.952Z,4.44
2023-03-27T11:31:14.977Z,4.38
2023-03-27T11:41:21.984Z,4.47
2023-03-27T11:51:31.389Z,4.42
2023-03-27T12:01:47.223Z,4.64
2023-03-27T12:12:08.806Z,4.67
2023-03-27T12:22:33.977Z,5.07
2023-03-27T12:32:55.656Z,4.72
2023-03-27T12:43:08.370Z,4.66
2023-03-27T12:53:40.915Z,4.59
2023-03-27T13:04:02.955Z,4.57
2023-03-27T13:15:05.123Z,4.46
2023-03-27T13:25:23.332Z,4.55
2023-03-27T13:35:35.317Z,4.36
2023-03-27T13:45:48.586Z,4.17
2023-03-27T13:56:04.524Z,4.33
2023-03-27T14:06:32.955Z,4.30
2023-03-27T14:16:48.441Z,4.17
2023-03-27T14:26:56.180Z,4.03
2023-03-27T14:37:23.936Z,4.27
2023-03-27T14:47:30.581Z,4.40
2023-03-27T14:57:37.186Z,4.30
2023-03-27T15:18:59.112Z,4.11
2023-03-27T15:29:36.103Z,4.33
2023-03-27T15:40:50.098Z,4.22
2023-03-27T15:51:06.096Z,4.33
2023-03-27T16:01:32.163Z,4.43
2023-03-27T16:11:54.150Z,4.57
2023-03-27T16:22:07.137Z,4.60
2023-03-27T16:32:21.122Z,4.80
2023-03-27T16:42:41.174Z,4.40
2023-03-27T16:52:54.150Z,4.15
2023-03-27T17:03:07.210Z,3.82
2023-03-27T17:13:20.141Z,3.45
2023-03-27T17:23:33.169Z,3.17
2023-03-27T17:33:46.175Z,2.92
2023-03-27T17:43:59.185Z,2.81
2023-03-27T17:54:12.193Z,2.82
2023-03-27T18:04:26.218Z,2.59
2023-03-27T18:14:39.187Z,2.48
2023-03-27T18:24:52.193Z,2.27
2023-03-27T18:35:05.234Z,2.19
2023-03-27T18:45:19.230Z,1.88
2023-03-27T18:55:32.195Z,1.62
2023-03-27T19:05:45.272Z,1.50
2023-03-27T19:15:58.263Z,1.33
2023-03-27T19:26:16.269Z,1.32
2023-03-27T19:36:29.223Z,1.12
2023-03-27T19:46:42.320Z,1.16
2023-03-27T19:56:55.275Z,1.11
2023-03-27T20:07:09.270Z,1.02
2023-03-27T20:17:28.548Z,0.93
2023-03-27T20:27:42.277Z,0.74
2023-03-27T20:37:55.280Z,0.65
2023-03-27T20:48:11.294Z,0.55
2023-03-27T20:58:24.299Z,0.51
2023-03-27T21:08:39.337Z,0.38
2023-03-27T21:18:52.298Z,0.16
2023-03-27T21:29:05.393Z,0.13
2023-03-27T21:39:18.337Z,0.02
2023-03-27T21:49:31.355Z,-0.15
2023-03-27T21:59:51.335Z,-0.16
2023-03-27T22:10:04.356Z,-0.35
2023-03-27T22:20:18.383Z,-0.55
2023-03-27T22:30:38.369Z,-0.65
2023-03-27T22:40:58.349Z,-0.66
2023-03-27T22:51:10.364Z,-0.86
2023-03-27T23:01:23.399Z,-1.01
2023-03-27T23:11:36.438Z,-0.88
2023-03-27T23:21:49.375Z,-0.80
2023-03-27T23:32:02.477Z,-0.87
2023-03-27T23:42:22.406Z,-0.92
2023-03-27T23:52:35.437Z,-0.92
